createdAt,value
2022-11-25T00:01:12.041Z,101792.81
2022-11-25T00:03:39.838Z,101788.44
2022-11-25T00:06:24.134Z,101800.66
2022-11-25T00:08:53.885Z,101799.78
2022-11-25T00:11:20.673Z,101803.28
2022-11-25T00:13:48.322Z,101795.44
2022-11-25T00:16:17.377Z,101800.66
2022-11-25T00:18:48.220Z,101800.63
2022-11-25T00:21:18.663Z,101806.72
2022-11-25T00:23:50.561Z,101810.25
2022-11-25T00:26:17.610Z,101810.19
2022-11-25T00:28:46.003Z,101811.03
2022-11-25T00:31:14.114Z,101801.44
2022-11-25T00:33:41.110Z,101806.66
2022-11-25T00:36:19.377Z,101801.34
2022-11-25T00:38:46.545Z,101812.66
2022-11-25T00:41:32.657Z,101808.25
2022-11-25T00:44:17.785Z,101809.16
2022-11-25T00:46:44.377Z,101806.50
2022-11-25T00:49:10.953Z,101814.38
2022-11-25T00:51:37.843Z,101810.91
2022-11-25T00:54:04.693Z,101818.78
2022-11-25T00:56:31.241Z,101814.41
2022-11-25T00:58:57.850Z,101817.88
2022-11-25T01:01:25.065Z,101819.59
2022-11-25T01:03:52.962Z,101816.97
2022-11-25T01:06:20.448Z,101819.59
2022-11-25T01:08:47.069Z,101820.41
2022-11-25T01:11:16.403Z,101816.00
2022-11-25T01:13:43.968Z,101825.66
2022-11-25T01:16:16.775Z,101825.66
2022-11-25T01:18:44.204Z,101828.25
2022-11-25T01:21:16.484Z,101826.53
2022-11-25T01:23:43.702Z,101831.81
2022-11-25T01:26:16.066Z,101816.09
2022-11-25T01:28:42.668Z,101824.78
2022-11-25T01:31:18.221Z,101817.78
2022-11-25T01:33:46.105Z,101822.16
2022-11-25T01:36:15.323Z,101817.72
2022-11-25T01:38:42.432Z,101821.22
2022-11-25T01:41:13.196Z,101823.03
2022-11-25T01:43:40.608Z,101818.66
2022-11-25T01:46:16.015Z,101816.91
2022-11-25T01:48:49.752Z,101821.28
2022-11-25T01:51:27.950Z,101817.78
2022-11-25T01:54:02.083Z,101827.44
2022-11-25T01:56:33.489Z,101822.22
2022-11-25T01:59:00.449Z,101820.41
2022-11-25T02:01:27.496Z,101813.44
2022-11-25T02:03:59.605Z,101811.63
2022-11-25T02:06:31.199Z,101810.75
2022-11-25T02:09:04.759Z,101819.47
2022-11-25T02:11:33.920Z,101810.72
2022-11-25T02:14:02.106Z,101805.41
2022-11-25T02:16:29.116Z,101796.66
2022-11-25T02:18:56.452Z,101799.25
2022-11-25T02:21:43.238Z,101800.09
2022-11-25T02:24:31.269Z,101795.72
2022-11-25T02:26:58.513Z,101811.41
2022-11-25T02:29:26.285Z,101809.66
2022-11-25T02:31:53.361Z,101807.94
2022-11-25T02:34:19.935Z,101810.53
2022-11-25T02:36:46.562Z,101815.75
2022-11-25T02:39:13.550Z,101808.78
2022-11-25T02:41:45.838Z,101815.78
2022-11-25T02:44:12.430Z,101822.78
2022-11-25T02:46:39.325Z,101823.63
2022-11-25T02:49:10.224Z,101821.06
2022-11-25T02:51:38.535Z,101822.81
2022-11-25T02:54:05.187Z,101829.84
2022-11-25T02:56:34.396Z,101825.53
2022-11-25T02:59:01.725Z,101819.41
2022-11-25T03:01:29.833Z,101829.88
2022-11-25T03:03:57.263Z,101835.19
2022-11-25T03:06:23.932Z,101831.69
2022-11-25T03:08:50.533Z,101828.16
2022-11-25T03:11:17.197Z,101825.59
2022-11-25T03:13:43.747Z,101818.66
2022-11-25T03:16:10.520Z,101822.19
2022-11-25T03:18:37.343Z,101827.38
2022-11-25T03:21:04.155Z,101816.91
2022-11-25T03:23:33.322Z,101818.63
2022-11-25T03:25:59.902Z,101820.34
2022-11-25T03:28:26.461Z,101816.91
2022-11-25T03:30:53.023Z,101824.78
2022-11-25T03:33:19.660Z,101822.22
2022-11-25T03:35:48.410Z,101820.47
2022-11-25T03:38:14.946Z,101829.19
2022-11-25T03:40:41.501Z,101826.63
2022-11-25T03:43:08.060Z,101836.22
2022-11-25T03:45:34.635Z,101837.09
2022-11-25T03:48:01.217Z,101831.88
2022-11-25T03:50:27.782Z,101838.88
2022-11-25T03:52:54.318Z,101841.50
2022-11-25T03:55:20.870Z,101838.03
2022-11-25T03:57:47.406Z,101845.91
2022-11-25T04:00:14.121Z,101845.06
2022-11-25T04:02:40.690Z,101847.69
2022-11-25T04:05:07.642Z,101843.31
2022-11-25T04:07:34.248Z,101845.06
2022-11-25T04:10:00.898Z,101846.78
2022-11-25T04:12:46.032Z,101848.53
2022-11-25T04:15:14.060Z,101852.91
2022-11-25T04:17:40.720Z,101849.47
2022-11-25T04:20:08.022Z,101857.31
2022-11-25T04:22:34.589Z,101845.97
2022-11-25T04:25:01.333Z,101856.47
2022-11-25T04:27:27.882Z,101853.88
2022-11-25T04:29:54.425Z,101859.13
2022-11-25T04:32:21.049Z,101857.38
2022-11-25T04:34:47.677Z,101858.19
2022-11-25T04:37:14.553Z,101858.19
2022-11-25T04:39:41.172Z,101854.69
2022-11-25T04:42:26.578Z,101855.53
2022-11-25T04:45:20.958Z,101850.28
2022-11-25T04:47:39.977Z,101853.78
2022-11-25T04:50:09.335Z,101853.78
2022-11-25T04:52:35.920Z,101855.53
2022-11-25T04:55:02.464Z,101852.91
2022-11-25T04:57:29.033Z,101852.91
2022-11-25T04:59:55.581Z,101856.34
2022-11-25T05:02:24.785Z,101849.31
2022-11-25T05:04:53.590Z,101858.06
2022-11-25T05:07:22.865Z,101849.31
2022-11-25T05:09:49.805Z,101860.69
2022-11-25T05:12:20.738Z,101857.16
2022-11-25T05:14:47.338Z,101864.13
2022-11-25T05:17:19.882Z,101871.09
2022-11-25T05:19:47.194Z,101870.25
2022-11-25T05:22:16.949Z,101870.25
2022-11-25T05:24:44.546Z,101875.47
2022-11-25T05:27:11.579Z,101880.78
2022-11-25T05:29:38.160Z,101879.91
2022-11-25T05:32:05.558Z,101872.09
2022-11-25T05:34:32.117Z,101885.13
2022-11-25T05:36:58.992Z,101882.56
2022-11-25T05:39:25.604Z,101881.72
2022-11-25T05:41:52.197Z,101883.50
2022-11-25T05:44:22.896Z,101894.88
2022-11-25T05:46:50.421Z,101890.53
2022-11-25T05:49:18.331Z,101897.50
2022-11-25T05:51:45.736Z,101894.06
2022-11-25T05:54:12.354Z,101903.66
2022-11-25T05:56:39.037Z,101901.06
2022-11-25T05:59:06.240Z,101904.53
2022-11-25T06:01:33.661Z,101901.91
2022-11-25T06:04:04.547Z,101908.03
2022-11-25T06:06:32.187Z,101913.28
2022-11-25T06:08:59.364Z,101918.56
2022-11-25T06:11:25.913Z,101908.09
2022-11-25T06:13:52.523Z,101903.72
2022-11-25T06:16:21.858Z,101906.41
2022-11-25T06:18:48.548Z,101906.41
2022-11-25T06:21:16.066Z,101895.94
2022-11-25T06:23:44.816Z,101909.03
2022-11-25T06:26:17.768Z,101909.84
2022-11-25T06:28:44.566Z,101903.72
2022-11-25T06:31:19.302Z,101906.34
2022-11-25T06:33:50.401Z,101912.41
2022-11-25T06:36:18.617Z,101908.91
2022-11-25T06:38:47.237Z,101912.41
2022-11-25T06:41:14.520Z,101904.47
2022-11-25T06:43:41.471Z,101914.09
2022-11-25T06:46:10.556Z,101914.03
2022-11-25T06:48:37.650Z,101914.84
2022-11-25T06:51:07.117Z,101925.31
2022-11-25T06:53:35.166Z,101923.50
2022-11-25T06:56:12.401Z,101918.28
2022-11-25T06:58:39.990Z,101920.84
2022-11-25T07:01:19.261Z,101921.72
2022-11-25T07:03:47.266Z,101914.72
2022-11-25T07:06:15.229Z,101919.91
2022-11-25T07:08:42.367Z,101926.88
2022-11-25T07:11:16.689Z,101923.41
2022-11-25T07:13:43.502Z,101933.03
2022-11-25T07:16:11.155Z,101926.91
2022-11-25T07:18:39.269Z,101923.44
2022-11-25T07:21:15.014Z,101925.19
2022-11-25T07:23:43.613Z,101922.59
2022-11-25T07:26:14.064Z,101921.78
2022-11-25T07:28:41.804Z,101926.13
2022-11-25T07:31:27.109Z,101923.50
2022-11-25T07:33:56.800Z,101922.63
2022-11-25T07:36:23.905Z,101925.31
2022-11-25T07:38:50.979Z,101926.19
2022-11-25T07:41:23.288Z,101924.50
2022-11-25T07:43:55.335Z,101930.59
2022-11-25T07:46:36.415Z,101933.22
2022-11-25T07:49:09.829Z,101927.19
2022-11-25T07:51:38.258Z,101937.66
2022-11-25T07:54:07.631Z,101935.91
2022-11-25T07:56:36.387Z,101935.91
2022-11-25T07:59:03.673Z,101935.91
2022-11-25T08:01:30.318Z,101949.00
2022-11-25T08:03:57.350Z,101938.50
2022-11-25T08:06:26.941Z,101941.13
2022-11-25T08:08:55.731Z,101938.50
2022-11-25T08:11:25.318Z,101952.50
2022-11-25T08:13:52.249Z,101949.03
2022-11-25T08:16:20.675Z,101946.41
2022-11-25T08:18:48.101Z,101949.06
2022-11-25T08:21:16.232Z,101953.47
2022-11-25T08:23:48.748Z,101950.91
2022-11-25T08:26:19.861Z,101952.66
2022-11-25T08:28:47.182Z,101953.56
2022-11-25T08:31:23.321Z,101953.59
2022-11-25T08:33:50.633Z,101960.69
2022-11-25T08:36:18.355Z,101958.00
2022-11-25T08:38:47.547Z,101952.81
2022-11-25T08:41:23.903Z,101965.94
2022-11-25T08:43:50.850Z,101954.63
2022-11-25T08:46:21.120Z,101963.38
2022-11-25T08:48:47.725Z,101974.72
2022-11-25T08:51:18.906Z,101971.22
2022-11-25T08:53:46.512Z,101973.88
2022-11-25T08:56:14.266Z,101975.69
2022-11-25T08:58:41.108Z,101975.69
2022-11-25T09:01:08.259Z,101974.81
2022-11-25T09:03:38.270Z,101978.31
2022-11-25T09:06:06.536Z,101977.50
2022-11-25T09:08:33.687Z,101972.25
2022-11-25T09:11:00.959Z,101969.69
2022-11-25T09:13:27.617Z,101971.44
2022-11-25T09:15:54.258Z,101979.34
2022-11-25T09:18:25.659Z,101973.28
2022-11-25T09:20:53.482Z,101965.47
2022-11-25T09:23:20.762Z,101975.97
2022-11-25T09:25:58.042Z,101973.34
2022-11-25T09:28:26.427Z,101964.63
2022-11-25T09:30:53.310Z,101971.66
2022-11-25T09:33:21.342Z,101970.78
2022-11-25T09:35:48.771Z,101967.34
2022-11-25T09:38:15.326Z,101962.97
2022-11-25T09:41:39.199Z,101964.78
2022-11-25T09:44:56.593Z,101961.28
2022-11-25T09:48:08.088Z,101970.94
2022-11-25T09:51:12.133Z,101966.63
2022-11-25T09:53:43.898Z,101960.50
2022-11-25T09:56:41.337Z,101964.91
2022-11-25T09:59:17.154Z,101970.16
2022-11-25T10:01:57.652Z,101971.91
2022-11-25T10:04:47.435Z,101966.66
2022-11-25T10:07:21.320Z,101967.53
2022-11-25T10:09:48.092Z,101969.34
2022-11-25T10:12:20.441Z,101972.00
2022-11-25T10:14:49.729Z,101969.41
2022-11-25T10:17:33.387Z,101972.09
2022-11-25T10:20:07.127Z,101975.59
2022-11-25T10:22:41.813Z,101976.53
2022-11-25T10:25:27.573Z,101982.69
2022-11-25T10:28:01.297Z,101976.63
2022-11-25T10:30:44.220Z,101979.25
2022-11-25T10:33:24.851Z,101975.75
2022-11-25T10:36:00.378Z,101981.00
2022-11-25T10:38:39.621Z,101993.31
2022-11-25T10:41:06.226Z,101988.94
2022-11-25T10:43:33.639Z,101988.13
2022-11-25T10:46:21.811Z,101993.38
2022-11-25T10:48:51.090Z,101995.16
2022-11-25T10:51:35.553Z,101995.13
2022-11-25T10:54:16.356Z,101999.50
2022-11-25T10:56:51.914Z,102002.09
2022-11-25T10:59:36.462Z,102003.81
2022-11-25T11:02:30.663Z,102000.31
2022-11-25T11:05:00.489Z,101998.56
2022-11-25T11:07:30.501Z,102012.59
2022-11-25T11:10:21.104Z,102006.53
2022-11-25T11:12:59.195Z,102004.72
2022-11-25T11:15:32.471Z,102010.84
2022-11-25T11:18:14.261Z,102013.47
2022-11-25T11:20:46.803Z,102009.16
2022-11-25T11:23:14.304Z,102011.75
2022-11-25T11:25:43.180Z,102009.97
2022-11-25T11:28:35.110Z,102004.72
2022-11-25T11:31:26.300Z,102007.34
2022-11-25T11:34:08.812Z,102009.97
2022-11-25T11:36:51.501Z,102011.66
2022-11-25T11:40:00.035Z,102009.91
2022-11-25T11:42:48.006Z,102008.19
2022-11-25T11:45:26.517Z,102011.66
2022-11-25T11:48:29.238Z,102011.69
2022-11-25T11:51:05.850Z,102013.47
2022-11-25T11:53:38.157Z,102008.22
2022-11-25T11:58:55.248Z,102015.22
2022-11-25T12:01:43.869Z,102013.47
2022-11-25T12:04:30.907Z,102014.34
2022-11-25T12:07:09.421Z,102010.84
2022-11-25T12:09:52.629Z,102009.97
2022-11-25T12:12:22.485Z,102007.34
2022-11-25T12:15:01.130Z,102009.97
2022-11-25T12:17:35.752Z,102016.09
2022-11-25T12:20:19.693Z,102016.09
2022-11-25T12:22:52.209Z,102009.16
2022-11-25T12:25:31.129Z,102011.72
2022-11-25T12:28:06.393Z,102012.59
2022-11-25T12:30:46.762Z,102012.59
2022-11-25T12:33:35.326Z,102008.25
2022-11-25T12:36:17.826Z,102010.91
2022-11-25T12:39:02.222Z,102017.03
2022-11-25T12:41:45.052Z,102016.97
2022-11-25T12:44:52.750Z,102017.84
2022-11-25T12:47:19.562Z,102013.47
2022-11-25T12:49:51.042Z,102016.09
2022-11-25T12:52:50.990Z,102019.63
2022-11-25T12:55:22.357Z,102015.25
2022-11-25T12:58:22.813Z,102018.78
2022-11-25T13:01:08.042Z,102008.31
2022-11-25T13:04:28.289Z,102010.94
2022-11-25T13:07:04.873Z,102010.91
2022-11-25T13:10:00.033Z,102016.13
2022-11-25T13:12:41.768Z,102013.50
2022-11-25T13:15:46.281Z,102014.34
2022-11-25T13:18:18.555Z,102020.47
2022-11-25T13:20:51.839Z,102016.03
2022-11-25T13:23:18.413Z,102024.78
2022-11-25T13:25:47.583Z,102022.16
2022-11-25T13:28:33.382Z,102022.16
2022-11-25T13:31:24.752Z,102026.56
2022-11-25T13:33:58.497Z,102024.84
2022-11-25T13:36:43.014Z,102026.56
2022-11-25T13:39:18.194Z,102030.94
2022-11-25T13:41:48.792Z,102030.03
2022-11-25T13:44:25.564Z,102039.63
2022-11-25T13:46:53.716Z,102036.09
2022-11-25T13:49:39.102Z,102038.72
2022-11-25T13:52:11.398Z,102039.56
2022-11-25T13:54:55.921Z,102038.66
2022-11-25T13:57:27.650Z,102045.66
2022-11-25T14:00:00.101Z,102048.22
2022-11-25T14:02:29.903Z,102050.03
2022-11-25T14:05:08.687Z,102050.03
2022-11-25T14:07:52.698Z,102047.34
2022-11-25T14:10:45.041Z,102050.81
2022-11-25T14:13:30.203Z,102051.66
2022-11-25T14:16:06.901Z,102059.47
2022-11-25T14:21:30.249Z,102056.84
2022-11-25T14:23:56.736Z,102058.59
2022-11-25T14:26:50.671Z,102052.44
2022-11-25T14:29:32.205Z,102072.53
2022-11-25T14:32:15.906Z,102070.78
2022-11-25T14:34:54.856Z,102074.31
2022-11-25T14:37:27.802Z,102070.78
2022-11-25T14:40:04.015Z,102075.16
2022-11-25T14:42:37.589Z,102072.50
2022-11-25T14:45:20.611Z,102070.72
2022-11-25T14:47:47.270Z,102074.16
2022-11-25T14:53:09.534Z,102079.38
2022-11-25T14:55:37.135Z,102081.97
2022-11-25T14:58:04.290Z,102090.69
2022-11-25T15:00:31.045Z,102082.81
2022-11-25T15:03:00.229Z,102085.41
2022-11-25T15:05:35.410Z,102090.66
2022-11-25T15:08:08.043Z,102086.25
2022-11-25T15:10:56.160Z,102085.41
2022-11-25T15:13:39.259Z,102088.91
2022-11-25T15:16:18.816Z,102088.00
2022-11-25T15:18:50.736Z,102093.22
2022-11-25T15:21:21.879Z,102103.69
2022-11-25T15:23:48.726Z,102105.41
2022-11-25T15:26:20.966Z,102097.53
2022-11-25T15:28:47.810Z,102094.03
2022-11-25T15:31:20.441Z,102098.38
2022-11-25T15:33:54.410Z,102101.84
2022-11-25T15:36:23.962Z,102100.97
2022-11-25T15:38:51.443Z,102092.19
2022-11-25T15:41:38.189Z,102107.91
2022-11-25T15:44:06.315Z,102107.03
2022-11-25T15:46:35.903Z,102111.38
2022-11-25T15:49:05.916Z,102109.63
2022-11-25T15:51:51.026Z,102118.38
2022-11-25T15:54:43.117Z,102116.63
2022-11-25T15:57:28.480Z,102121.00
2022-11-25T15:59:54.987Z,102120.16
2022-11-25T16:02:27.488Z,102116.63
2022-11-25T16:05:14.440Z,102118.38
2022-11-25T16:07:52.988Z,102112.25
2022-11-25T16:10:19.516Z,102118.38
2022-11-25T16:13:21.778Z,102111.31
2022-11-25T16:16:03.220Z,102113.94
2022-11-25T16:18:42.844Z,102106.88
2022-11-25T16:21:13.529Z,102112.06
2022-11-25T16:23:47.654Z,102105.03
2022-11-25T16:26:18.969Z,102116.44
2022-11-25T16:28:57.289Z,102118.19
2022-11-25T16:31:24.775Z,102112.06
2022-11-25T16:34:01.513Z,102107.72
2022-11-25T16:36:28.072Z,102109.47
2022-11-25T16:38:54.703Z,102106.84
2022-11-25T16:41:25.100Z,102111.22
2022-11-25T16:43:52.538Z,102119.06
2022-11-25T16:46:20.164Z,102108.59
2022-11-25T16:48:47.555Z,102118.19
2022-11-25T16:51:22.300Z,102113.84
2022-11-25T16:53:52.777Z,102114.75
2022-11-25T16:56:28.594Z,102111.22
2022-11-25T16:58:55.994Z,102106.84
2022-11-25T17:01:25.755Z,102112.06
2022-11-25T17:03:52.469Z,102115.56
2022-11-25T17:06:24.038Z,102105.03
2022-11-25T17:08:51.576Z,102104.16
2022-11-25T17:11:57.681Z,102105.91
2022-11-25T17:14:29.544Z,102108.53
2022-11-25T17:16:56.457Z,102108.50
2022-11-25T17:19:26.067Z,102097.16
2022-11-25T17:21:52.703Z,102105.94
2022-11-25T17:24:24.642Z,102112.06
2022-11-25T17:26:54.942Z,102109.44
2022-11-25T17:29:44.105Z,102118.13
2022-11-25T17:32:15.582Z,102114.69
2022-11-25T17:34:42.244Z,102119.06
2022-11-25T17:37:22.837Z,102119.06
2022-11-25T17:39:50.485Z,102120.81
2022-11-25T17:42:18.990Z,102120.88
2022-11-25T17:44:49.934Z,102124.38
2022-11-25T17:47:18.065Z,102114.81
2022-11-25T17:49:46.023Z,102122.69
2022-11-25T17:52:12.620Z,102124.47
2022-11-25T17:54:39.935Z,102128.84
2022-11-25T17:57:11.464Z,102127.97
2022-11-25T17:59:38.282Z,102128.88
2022-11-25T18:02:16.465Z,102139.38
2022-11-25T18:04:43.025Z,102137.66
2022-11-25T18:07:10.523Z,102142.00
2022-11-25T18:09:37.080Z,102140.25
2022-11-25T18:12:11.611Z,102139.41
2022-11-25T18:14:40.891Z,102133.34
2022-11-25T18:17:11.058Z,102136.00
2022-11-25T18:19:37.691Z,102139.47
2022-11-25T18:22:15.704Z,102130.72
2022-11-25T18:24:43.041Z,102130.72
2022-11-25T18:27:29.069Z,102128.91
2022-11-25T18:29:56.400Z,102135.03
2022-11-25T18:32:23.863Z,102137.66
2022-11-25T18:34:51.569Z,102136.72
2022-11-25T18:37:18.169Z,102137.63
2022-11-25T18:39:44.774Z,102141.97
2022-11-25T18:42:25.796Z,102142.84
2022-11-25T18:44:54.850Z,102147.19
2022-11-25T18:47:21.432Z,102148.06
2022-11-25T18:49:53.905Z,102151.56
2022-11-25T18:52:22.269Z,102150.75
2022-11-25T18:54:49.485Z,102147.25
2022-11-25T18:57:16.229Z,102147.31
2022-11-25T18:59:43.742Z,102143.88
2022-11-25T19:02:17.069Z,102141.28
2022-11-25T19:04:44.462Z,102147.44
2022-11-25T19:07:11.124Z,102151.75
2022-11-25T19:09:37.801Z,102151.75
2022-11-25T19:12:05.118Z,102152.63
2022-11-25T19:14:41.717Z,102155.25
2022-11-25T19:17:19.755Z,102157.00
2022-11-25T19:19:47.110Z,102160.47
2022-11-25T19:22:15.692Z,102160.47
2022-11-25T19:24:42.684Z,102160.47
2022-11-25T19:27:18.505Z,102157.84
2022-11-25T19:29:46.225Z,102168.34
2022-11-25T19:32:23.041Z,102165.72
2022-11-25T19:34:54.742Z,102165.72
2022-11-25T19:37:22.853Z,102159.63
2022-11-25T19:39:52.921Z,102160.47
2022-11-25T19:42:19.762Z,102170.94
2022-11-25T19:44:47.259Z,102167.44
2022-11-25T19:47:21.087Z,102170.09
2022-11-25T19:49:48.817Z,102176.22
2022-11-25T19:52:18.318Z,102171.88
2022-11-25T19:54:44.982Z,102171.03
2022-11-25T19:57:23.730Z,102177.19
2022-11-25T19:59:50.642Z,102169.31
2022-11-25T20:02:26.607Z,102167.59
2022-11-25T20:04:56.385Z,102161.47
2022-11-25T20:07:23.382Z,102172.84
2022-11-25T20:09:53.605Z,102172.84
2022-11-25T20:12:30.533Z,102171.09
2022-11-25T20:14:57.145Z,102175.44
2022-11-25T20:17:30.712Z,102181.56
2022-11-25T20:20:03.073Z,102181.56
2022-11-25T20:22:32.653Z,102187.69
2022-11-25T20:25:02.743Z,102188.56
2022-11-25T20:27:29.720Z,102188.56
2022-11-25T20:29:56.320Z,102192.91
2022-11-25T20:32:34.205Z,102197.31
2022-11-25T20:35:00.797Z,102201.66
2022-11-25T20:37:29.633Z,102199.88
2022-11-25T20:39:58.636Z,102204.28
2022-11-25T20:42:26.566Z,102206.03
2022-11-25T20:44:57.296Z,102211.25
2022-11-25T20:47:26.388Z,102213.00
2022-11-25T20:49:53.749Z,102214.78
2022-11-25T20:52:28.257Z,102207.78
2022-11-25T20:54:54.922Z,102218.31
2022-11-25T20:57:21.510Z,102224.38
2022-11-25T20:59:48.082Z,102225.25
2022-11-25T21:02:16.622Z,102219.13
2022-11-25T21:04:43.224Z,102223.56
2022-11-25T21:07:17.927Z,102223.56
2022-11-25T21:09:45.780Z,102228.81
2022-11-25T21:12:18.778Z,102227.91
2022-11-25T21:14:46.089Z,102223.50
2022-11-25T21:17:12.638Z,102230.50
2022-11-25T21:19:40.303Z,102228.75
2022-11-25T21:22:06.875Z,102227.88
2022-11-25T21:24:40.511Z,102224.38
2022-11-25T21:27:14.487Z,102226.13
2022-11-25T21:29:43.067Z,102231.41
2022-11-25T21:32:29.874Z,102232.28
2022-11-25T21:34:57.813Z,102242.78
2022-11-25T21:37:36.437Z,102232.28
2022-11-25T21:40:05.158Z,102236.63
2022-11-25T21:42:32.703Z,102228.75
2022-11-25T21:44:59.471Z,102228.75
2022-11-25T21:47:28.854Z,102225.25
2022-11-25T21:49:55.522Z,102235.78
2022-11-25T21:52:22.101Z,102233.16
2022-11-25T21:54:48.666Z,102230.56
2022-11-25T21:57:26.181Z,102232.31
2022-11-25T21:59:52.773Z,102240.19
2022-11-25T22:02:24.752Z,102237.56
2022-11-25T22:04:52.368Z,102241.97
2022-11-25T22:07:19.084Z,102229.69
2022-11-25T22:09:45.759Z,102237.53
2022-11-25T22:12:36.797Z,102240.97
2022-11-25T22:15:16.090Z,102235.75
2022-11-25T22:17:43.482Z,102241.78
2022-11-25T22:20:29.424Z,102247.09
2022-11-25T22:22:56.618Z,102254.03
2022-11-25T22:25:25.723Z,102247.94
2022-11-25T22:27:52.404Z,102249.72
2022-11-25T22:30:21.061Z,102253.25
2022-11-25T22:32:58.561Z,102249.75
2022-11-25T22:35:25.133Z,102250.63
2022-11-25T22:37:55.210Z,102252.38
2022-11-25T22:40:23.592Z,102253.25
2022-11-25T22:42:55.383Z,102252.38
2022-11-25T22:45:33.017Z,102255.00
2022-11-25T22:48:03.567Z,102255.03
2022-11-25T22:50:33.625Z,102255.03
2022-11-25T22:53:01.534Z,102258.53
2022-11-25T22:55:33.095Z,102257.69
2022-11-25T22:58:01.814Z,102257.69
2022-11-25T23:00:32.596Z,102254.19
2022-11-25T23:03:00.630Z,102264.69
2022-11-25T23:05:33.189Z,102265.56
2022-11-25T23:08:01.727Z,102271.69
2022-11-25T23:10:31.628Z,102273.44
2022-11-25T23:12:58.366Z,102263.81
2022-11-25T23:15:25.193Z,102271.69
2022-11-25T23:17:58.142Z,102262.94
2022-11-25T23:20:30.361Z,102262.09
2022-11-25T23:22:57.729Z,102269.94
2022-11-25T23:25:24.392Z,102263.75
2022-11-25T23:27:50.950Z,102270.81
2022-11-25T23:30:20.217Z,102265.56
2022-11-25T23:32:49.907Z,102262.00
2022-11-25T23:35:19.170Z,102263.75
2022-11-25T23:37:52.181Z,102262.88
2022-11-25T23:40:20.921Z,102267.25
2022-11-25T23:42:48.445Z,102267.25
2022-11-25T23:45:17.795Z,102264.63
2022-11-25T23:47:45.936Z,102265.44
2022-11-25T23:50:33.963Z,102264.63
2022-11-25T23:53:03.517Z,102267.25
2022-11-25T23:55:33.875Z,102268.13
2022-11-25T23:58:02.506Z,102269.88
